createdAt,value
2022-11-19T00:01:28.366Z,2.68
2022-11-19T00:03:56.160Z,2.68
2022-11-19T00:06:26.085Z,2.68
2022-11-19T00:08:53.799Z,2.70
2022-11-19T00:11:44.918Z,2.72
2022-11-19T00:14:14.871Z,2.73
2022-11-19T00:16:43.855Z,2.67
2022-11-19T00:19:11.922Z,2.65
2022-11-19T00:21:39.082Z,2.65
2022-11-19T00:24:06.961Z,2.59
2022-11-19T00:26:34.288Z,2.65
2022-11-19T00:29:01.436Z,2.62
2022-11-19T00:31:28.696Z,2.60
2022-11-19T00:33:55.824Z,2.62
2022-11-19T00:36:23.189Z,2.57
2022-11-19T00:38:50.678Z,2.59
2022-11-19T00:41:19.465Z,2.58
2022-11-19T00:43:47.636Z,2.53
2022-11-19T00:46:26.017Z,2.56
2022-11-19T00:48:54.582Z,2.59
2022-11-19T00:51:26.304Z,2.63
2022-11-19T00:53:53.718Z,2.60
2022-11-19T00:56:23.127Z,2.66
2022-11-19T00:58:51.594Z,2.65
2022-11-19T01:01:21.140Z,2.64
2022-11-19T01:03:48.927Z,2.68
2022-11-19T01:06:19.566Z,2.65
2022-11-19T01:08:48.591Z,2.58
2022-11-19T01:11:21.097Z,2.62
2022-11-19T01:13:48.526Z,2.57
2022-11-19T01:16:26.039Z,2.63
2022-11-19T01:18:53.751Z,2.62
2022-11-19T01:21:22.954Z,2.60
2022-11-19T01:23:50.638Z,2.53
2022-11-19T01:26:18.592Z,2.53
2022-11-19T01:28:46.272Z,2.53
2022-11-19T01:31:19.534Z,2.44
2022-11-19T01:33:47.228Z,2.49
2022-11-19T01:36:18.571Z,2.42
2022-11-19T01:38:50.915Z,2.39
2022-11-19T01:41:26.239Z,2.35
2022-11-19T01:43:58.937Z,2.40
2022-11-19T01:46:34.848Z,2.43
2022-11-19T01:49:14.989Z,2.37
2022-11-19T01:51:51.481Z,2.35
2022-11-19T01:54:50.604Z,2.33
2022-11-19T01:57:19.128Z,2.30
2022-11-19T01:59:51.095Z,2.30
2022-11-19T02:02:25.415Z,2.31
2022-11-19T02:04:53.809Z,2.24
2022-11-19T02:07:26.190Z,2.29
2022-11-19T02:09:53.357Z,2.21
2022-11-19T02:12:41.939Z,2.17
2022-11-19T02:15:36.091Z,2.15
2022-11-19T02:18:31.212Z,2.08
2022-11-19T02:21:10.367Z,2.05
2022-11-19T02:23:48.438Z,2.06
2022-11-19T02:26:46.433Z,2.05
2022-11-19T02:29:31.875Z,2.05
2022-11-19T02:32:17.310Z,2.07
2022-11-19T02:34:57.699Z,2.03
2022-11-19T02:37:42.760Z,2.00
2022-11-19T02:40:20.789Z,1.96
2022-11-19T02:42:59.281Z,1.96
2022-11-19T02:45:35.815Z,1.94
2022-11-19T02:48:17.835Z,1.85
2022-11-19T02:50:55.033Z,1.84
2022-11-19T02:53:23.494Z,1.75
2022-11-19T02:56:09.210Z,1.80
2022-11-19T02:58:59.542Z,1.79
2022-11-19T03:01:48.625Z,1.78
2022-11-19T03:04:30.412Z,1.74
2022-11-19T03:07:03.494Z,1.73
2022-11-19T03:09:32.876Z,1.74
2022-11-19T03:12:07.473Z,1.69
2022-11-19T03:15:13.031Z,1.68
2022-11-19T03:18:01.032Z,1.66
2022-11-19T03:20:41.540Z,1.65
2022-11-19T03:23:26.103Z,1.58
2022-11-19T03:26:04.922Z,1.61
2022-11-19T03:28:37.357Z,1.53
2022-11-19T03:31:06.693Z,1.47
2022-11-19T03:33:35.132Z,1.42
2022-11-19T03:36:08.372Z,1.35
2022-11-19T03:38:44.249Z,1.35
2022-11-19T03:41:15.295Z,1.24
2022-11-19T03:43:45.793Z,1.17
2022-11-19T03:46:16.897Z,1.14
2022-11-19T03:48:47.683Z,1.11
2022-11-19T03:51:40.724Z,1.06
2022-11-19T03:54:08.669Z,1.09
2022-11-19T03:56:39.710Z,1.08
2022-11-19T03:59:10.469Z,1.08
2022-11-19T04:01:38.291Z,1.07
2022-11-19T04:04:24.398Z,1.03
2022-11-19T04:06:51.447Z,0.96
2022-11-19T04:09:19.183Z,0.97
2022-11-19T04:14:12.379Z,1.01
2022-11-19T04:16:39.490Z,1.00
2022-11-19T04:19:06.529Z,1.04
2022-11-19T04:21:33.740Z,1.05
2022-11-19T04:24:00.780Z,1.02
2022-11-19T04:26:27.884Z,1.05
2022-11-19T04:28:54.880Z,1.09
2022-11-19T04:31:21.906Z,1.04
2022-11-19T04:33:48.928Z,1.03
2022-11-19T04:36:15.993Z,1.03
2022-11-19T04:38:43.014Z,1.04
2022-11-19T04:41:10.075Z,1.06
2022-11-19T04:43:37.134Z,1.01
2022-11-19T04:46:04.270Z,0.97
2022-11-19T04:48:31.317Z,0.95
2022-11-19T04:50:58.360Z,0.89
2022-11-19T04:53:25.426Z,0.85
2022-11-19T04:55:52.390Z,0.77
2022-11-19T04:58:19.460Z,0.78
2022-11-19T05:00:48.202Z,0.74
2022-11-19T05:03:15.276Z,0.76
2022-11-19T05:05:42.350Z,0.74
2022-11-19T05:08:09.431Z,0.71
2022-11-19T05:10:36.417Z,0.70
2022-11-19T05:13:03.513Z,0.67
2022-11-19T05:15:30.910Z,0.71
2022-11-19T05:17:57.950Z,0.63
2022-11-19T05:20:24.919Z,0.69
2022-11-19T05:22:51.972Z,0.74
2022-11-19T05:25:19.478Z,0.71
2022-11-19T05:27:46.584Z,0.74
2022-11-19T05:30:14.022Z,0.72
2022-11-19T05:32:41.041Z,0.71
2022-11-19T05:35:09.010Z,0.66
2022-11-19T05:37:36.018Z,0.60
2022-11-19T05:40:03.792Z,0.59
2022-11-19T05:42:31.166Z,0.56
2022-11-19T05:44:58.122Z,0.56
2022-11-19T05:47:25.145Z,0.56
2022-11-19T05:49:52.235Z,0.53
2022-11-19T05:52:19.409Z,0.54
2022-11-19T05:54:46.413Z,0.42
2022-11-19T05:57:13.494Z,0.48
2022-11-19T05:59:43.822Z,0.45
2022-11-19T06:02:12.083Z,0.41
2022-11-19T06:04:39.463Z,0.37
2022-11-19T06:07:07.010Z,0.37
2022-11-19T06:09:34.247Z,0.35
2022-11-19T06:12:01.375Z,0.33
2022-11-19T06:14:28.469Z,0.33
2022-11-19T06:16:58.069Z,0.29
2022-11-19T06:19:25.680Z,0.25
2022-11-19T06:21:53.425Z,0.23
2022-11-19T06:24:21.149Z,0.16
2022-11-19T06:26:48.282Z,0.15
2022-11-19T06:29:17.372Z,0.15
2022-11-19T06:31:45.565Z,0.15
2022-11-19T06:34:12.607Z,0.11
2022-11-19T06:36:43.916Z,0.14
2022-11-19T06:39:13.143Z,0.11
2022-11-19T06:41:40.004Z,0.07
2022-11-19T06:44:06.995Z,0.06
2022-11-19T06:46:34.099Z,0.09
2022-11-19T06:49:01.252Z,-0.01
2022-11-19T06:51:28.306Z,0.09
2022-11-19T06:53:55.338Z,0.08
2022-11-19T06:56:22.391Z,0.01
2022-11-19T06:58:49.346Z,-0.10
2022-11-19T07:01:16.561Z,-0.14
2022-11-19T07:03:43.651Z,-0.11
2022-11-19T07:06:10.965Z,-0.08
2022-11-19T07:08:39.340Z,-0.13
2022-11-19T07:11:25.680Z,-0.14
2022-11-19T07:13:57.140Z,-0.21
2022-11-19T07:16:33.812Z,-0.25
2022-11-19T07:19:06.416Z,-0.33
2022-11-19T07:21:34.107Z,-0.34
2022-11-19T07:24:03.328Z,-0.35
2022-11-19T07:26:32.551Z,-0.37
2022-11-19T07:29:04.685Z,-0.39
2022-11-19T07:31:33.306Z,-0.39
2022-11-19T07:34:00.947Z,-0.44
2022-11-19T07:36:27.954Z,-0.46
2022-11-19T07:38:55.057Z,-0.46
2022-11-19T07:41:40.993Z,-0.51
2022-11-19T07:44:08.446Z,-0.54
2022-11-19T07:46:35.743Z,-0.54
2022-11-19T07:49:03.017Z,-0.54
2022-11-19T07:51:30.066Z,-0.54
2022-11-19T07:53:57.138Z,-0.51
2022-11-19T07:56:24.654Z,-0.47
2022-11-19T07:58:51.787Z,-0.59
2022-11-19T08:01:21.463Z,-0.50
2022-11-19T08:03:55.945Z,-0.55
2022-11-19T08:06:25.777Z,-0.51
2022-11-19T08:08:54.527Z,-0.60
2022-11-19T08:11:21.957Z,-0.61
2022-11-19T08:13:49.393Z,-0.64
2022-11-19T08:16:35.969Z,-0.76
2022-11-19T08:19:07.216Z,-0.79
2022-11-19T08:21:34.636Z,-0.76
2022-11-19T08:24:02.210Z,-0.83
2022-11-19T08:26:29.786Z,-0.86
2022-11-19T08:28:56.867Z,-0.86
2022-11-19T08:31:23.977Z,-0.89
2022-11-19T08:33:50.935Z,-0.96
2022-11-19T08:36:18.350Z,-0.98
2022-11-19T08:38:45.713Z,-1.02
2022-11-19T08:41:31.230Z,-1.01
2022-11-19T08:44:01.987Z,-1.03
2022-11-19T08:46:29.003Z,-1.02
2022-11-19T08:48:56.086Z,-1.01
2022-11-19T08:51:23.014Z,-1.00
2022-11-19T08:53:52.629Z,-1.05
2022-11-19T08:56:20.171Z,-1.01
2022-11-19T08:58:47.197Z,-1.05
2022-11-19T09:01:16.872Z,-1.04
2022-11-19T09:03:44.546Z,-1.04
2022-11-19T09:06:12.530Z,-1.05
2022-11-19T09:08:41.049Z,-1.08
2022-11-19T09:11:16.811Z,-1.07
2022-11-19T09:13:44.235Z,-1.08
2022-11-19T09:16:11.999Z,-1.10
2022-11-19T09:18:40.113Z,-1.06
2022-11-19T09:21:09.703Z,-1.00
2022-11-19T09:23:36.912Z,-0.90
2022-11-19T09:26:13.701Z,-0.81
2022-11-19T09:28:41.309Z,-0.78
2022-11-19T09:31:17.153Z,-0.72
2022-11-19T09:33:47.794Z,-0.74
2022-11-19T09:36:16.131Z,-0.60
2022-11-19T09:38:43.370Z,-0.58
2022-11-19T09:41:41.307Z,-0.55
2022-11-19T09:44:17.554Z,-0.49
2022-11-19T09:47:02.900Z,-0.45
2022-11-19T09:49:58.450Z,-0.40
2022-11-19T09:52:28.529Z,-0.42
2022-11-19T09:54:57.247Z,-0.35
2022-11-19T09:57:32.278Z,-0.32
2022-11-19T10:00:01.736Z,-0.32
2022-11-19T10:02:29.560Z,-0.27
2022-11-19T10:04:57.596Z,-0.24
2022-11-19T10:07:35.720Z,-0.24
2022-11-19T10:10:31.044Z,-0.26
2022-11-19T10:13:21.907Z,-0.19
2022-11-19T10:15:52.016Z,-0.11
2022-11-19T10:18:43.482Z,-0.08
2022-11-19T10:21:48.208Z,-0.06
2022-11-19T10:24:36.032Z,0.05
2022-11-19T10:27:12.411Z,0.07
2022-11-19T10:29:40.416Z,0.12
2022-11-19T10:32:42.855Z,0.16
2022-11-19T10:35:21.389Z,0.22
2022-11-19T10:37:56.746Z,0.24
2022-11-19T10:40:28.201Z,0.31
2022-11-19T10:43:01.357Z,0.34
2022-11-19T10:45:30.132Z,0.50
2022-11-19T10:48:16.174Z,0.40
2022-11-19T10:50:43.162Z,0.51
2022-11-19T10:53:38.057Z,0.57
2022-11-19T10:56:10.576Z,0.54
2022-11-19T10:58:46.835Z,0.60
2022-11-19T11:01:42.371Z,0.59
2022-11-19T11:04:20.279Z,0.62
2022-11-19T11:06:56.041Z,0.60
2022-11-19T11:09:33.926Z,0.71
2022-11-19T11:12:35.266Z,0.71
2022-11-19T11:15:23.861Z,0.65
2022-11-19T11:18:03.640Z,0.75
2022-11-19T11:20:31.557Z,0.76
2022-11-19T11:23:26.089Z,0.76
2022-11-19T11:26:18.115Z,0.81
2022-11-19T11:29:08.711Z,0.83
2022-11-19T11:31:47.220Z,0.79
2022-11-19T11:34:20.124Z,0.90
2022-11-19T11:36:47.372Z,0.91
2022-11-19T11:39:44.490Z,0.92
2022-11-19T11:42:19.252Z,0.96
2022-11-19T11:44:53.805Z,0.98
2022-11-19T11:47:25.635Z,0.95
2022-11-19T11:50:04.283Z,1.01
2022-11-19T11:52:39.869Z,1.08
2022-11-19T11:55:28.917Z,1.14
2022-11-19T11:57:58.507Z,1.21
2022-11-19T12:00:42.656Z,1.26
2022-11-19T12:03:15.759Z,1.22
2022-11-19T12:06:03.937Z,1.28
2022-11-19T12:08:39.835Z,1.31
2022-11-19T12:11:54.443Z,1.33
2022-11-19T12:14:57.557Z,1.43
2022-11-19T12:17:43.057Z,1.49
2022-11-19T12:20:33.764Z,1.52
2022-11-19T12:23:23.313Z,1.55
2022-11-19T12:26:02.566Z,1.58
2022-11-19T12:29:02.854Z,1.63
2022-11-19T12:31:40.052Z,1.67
2022-11-19T12:34:25.294Z,1.71
2022-11-19T12:37:26.610Z,1.76
2022-11-19T12:40:20.413Z,1.80
2022-11-19T12:43:09.642Z,1.80
2022-11-19T12:45:58.169Z,1.81
2022-11-19T12:48:59.851Z,1.80
2022-11-19T12:51:45.361Z,1.81
2022-11-19T12:54:34.521Z,1.80
2022-11-19T12:57:11.206Z,1.86
2022-11-19T13:00:08.609Z,1.88
2022-11-19T13:02:38.836Z,1.94
2022-11-19T13:05:14.048Z,1.97
2022-11-19T13:07:56.493Z,2.00
2022-11-19T13:10:33.335Z,2.00
2022-11-19T13:13:01.619Z,2.03
2022-11-19T13:15:39.981Z,2.05
2022-11-19T13:18:12.206Z,1.98
2022-11-19T13:21:16.165Z,2.06
2022-11-19T13:23:46.062Z,2.07
2022-11-19T13:26:31.102Z,2.11
2022-11-19T13:29:34.217Z,2.14
2022-11-19T13:32:10.866Z,2.16
2022-11-19T13:35:09.445Z,2.26
2022-11-19T13:37:45.409Z,2.26
2022-11-19T13:40:23.061Z,2.22
2022-11-19T13:46:11.435Z,2.17
2022-11-19T13:48:43.030Z,2.14
2022-11-19T13:51:24.562Z,2.09
2022-11-19T13:53:57.256Z,2.05
2022-11-19T13:56:49.846Z,2.05
2022-11-19T13:59:25.579Z,2.00
2022-11-19T14:01:56.152Z,2.00
2022-11-19T14:04:25.848Z,1.94
2022-11-19T14:07:16.746Z,1.92
2022-11-19T14:09:55.384Z,1.92
2022-11-19T14:12:54.071Z,1.96
2022-11-19T14:15:49.100Z,2.00
2022-11-19T14:18:54.703Z,2.01
2022-11-19T14:21:44.940Z,2.05
2022-11-19T14:24:45.953Z,2.11
2022-11-19T14:27:22.823Z,2.14
2022-11-19T14:29:50.040Z,2.20
2022-11-19T14:32:19.095Z,2.26
2022-11-19T14:35:07.541Z,2.38
2022-11-19T14:37:42.975Z,2.44
2022-11-19T14:40:14.415Z,2.51
2022-11-19T14:43:18.342Z,2.65
2022-11-19T14:46:04.378Z,2.77
2022-11-19T14:48:54.653Z,2.66
2022-11-19T14:51:36.636Z,2.55
2022-11-19T14:54:08.679Z,2.34
2022-11-19T14:56:37.766Z,2.17
2022-11-19T14:59:16.760Z,2.00
2022-11-19T15:01:55.533Z,1.90
2022-11-19T15:04:28.801Z,1.72
2022-11-19T15:06:56.589Z,1.66
2022-11-19T15:10:01.087Z,1.56
2022-11-19T15:12:43.474Z,1.44
2022-11-19T15:15:19.396Z,1.36
2022-11-19T15:18:02.391Z,1.27
2022-11-19T15:20:51.241Z,1.17
2022-11-19T15:23:28.764Z,1.08
2022-11-19T15:26:06.775Z,0.98
2022-11-19T15:28:48.255Z,0.96
2022-11-19T15:31:38.476Z,0.87
2022-11-19T15:34:48.696Z,0.77
2022-11-19T15:37:41.016Z,0.73
2022-11-19T15:40:14.189Z,0.66
2022-11-19T15:42:49.436Z,0.60
2022-11-19T15:45:20.304Z,0.52
2022-11-19T15:47:52.812Z,0.49
2022-11-19T15:50:23.099Z,0.39
2022-11-19T15:53:24.009Z,0.37
2022-11-19T15:55:56.355Z,0.34
2022-11-19T15:58:31.232Z,0.22
2022-11-19T16:00:58.491Z,0.24
2022-11-19T16:03:25.851Z,0.11
2022-11-19T16:06:17.207Z,0.11
2022-11-19T16:08:46.389Z,0.05
2022-11-19T16:11:40.605Z,0.03
2022-11-19T16:14:46.879Z,-0.13
2022-11-19T16:17:43.622Z,-0.10
2022-11-19T16:20:11.141Z,-0.17
2022-11-19T16:22:54.736Z,-0.22
2022-11-19T16:25:25.657Z,-0.33
2022-11-19T16:27:56.981Z,-0.32
2022-11-19T16:30:26.719Z,-0.36
2022-11-19T16:33:00.516Z,-0.43
2022-11-19T16:35:32.367Z,-0.41
2022-11-19T16:38:01.448Z,-0.54
2022-11-19T16:40:49.426Z,-0.57
2022-11-19T16:43:19.255Z,-0.57
2022-11-19T16:45:47.010Z,-0.62
2022-11-19T16:48:39.837Z,-0.70
2022-11-19T16:51:25.420Z,-0.72
2022-11-19T16:53:52.791Z,-0.77
2022-11-19T16:56:19.979Z,-0.76
2022-11-19T16:58:47.303Z,-0.80
2022-11-19T17:01:19.220Z,-0.85
2022-11-19T17:03:46.281Z,-0.88
2022-11-19T17:06:25.581Z,-0.95
2022-11-19T17:09:01.141Z,-0.92
2022-11-19T17:12:10.098Z,-0.92
2022-11-19T17:14:39.751Z,-0.96
2022-11-19T17:17:26.619Z,-0.98
2022-11-19T17:19:53.854Z,-1.01
2022-11-19T17:22:23.481Z,-1.04
2022-11-19T17:24:50.694Z,-1.06
2022-11-19T17:27:37.155Z,-1.09
2022-11-19T17:30:19.768Z,-1.09
2022-11-19T17:32:49.753Z,-1.15
2022-11-19T17:35:34.763Z,-1.14
2022-11-19T17:38:13.736Z,-1.15
2022-11-19T17:41:01.547Z,-1.16
2022-11-19T17:43:56.257Z,-1.22
2022-11-19T17:46:25.917Z,-1.15
2022-11-19T17:48:53.196Z,-1.20
2022-11-19T17:51:25.339Z,-1.17
2022-11-19T17:53:53.205Z,-1.20
2022-11-19T17:56:28.682Z,-1.21
2022-11-19T17:58:56.139Z,-1.30
2022-11-19T18:01:23.285Z,-1.23
2022-11-19T18:03:50.698Z,-1.24
2022-11-19T18:06:18.422Z,-1.23
2022-11-19T18:08:46.250Z,-1.22
2022-11-19T18:11:22.469Z,-1.23
2022-11-19T18:13:55.149Z,-1.22
2022-11-19T18:16:24.625Z,-1.23
2022-11-19T18:18:52.128Z,-1.18
2022-11-19T18:21:21.918Z,-1.17
2022-11-19T18:23:50.937Z,-1.22
2022-11-19T18:26:22.272Z,-1.25
2022-11-19T18:28:49.522Z,-1.27
2022-11-19T18:31:23.158Z,-1.31
2022-11-19T18:33:50.389Z,-1.28
2022-11-19T18:36:18.326Z,-1.34
2022-11-19T18:38:45.745Z,-1.38
2022-11-19T18:41:14.875Z,-1.37
2022-11-19T18:44:01.172Z,-1.36
2022-11-19T18:46:28.322Z,-1.41
2022-11-19T18:48:56.296Z,-1.44
2022-11-19T18:51:25.299Z,-1.51
2022-11-19T18:53:52.333Z,-1.55
2022-11-19T18:56:19.929Z,-1.54
2022-11-19T18:58:47.132Z,-1.58
2022-11-19T19:01:16.280Z,-1.62
2022-11-19T19:03:43.823Z,-1.59
2022-11-19T19:06:11.177Z,-1.63
2022-11-19T19:08:38.469Z,-1.67
2022-11-19T19:11:25.871Z,-1.73
2022-11-19T19:13:53.165Z,-1.81
2022-11-19T19:16:20.314Z,-1.84
2022-11-19T19:18:47.311Z,-1.82
2022-11-19T19:21:22.402Z,-1.83
2022-11-19T19:23:50.231Z,-1.87
2022-11-19T19:26:18.622Z,-1.84
2022-11-19T19:28:51.486Z,-1.91
2022-11-19T19:31:23.136Z,-2.05
2022-11-19T19:33:50.853Z,-2.05
2022-11-19T19:36:20.291Z,-1.98
2022-11-19T19:38:47.359Z,-2.02
2022-11-19T19:41:25.311Z,-1.97
2022-11-19T19:43:53.800Z,-1.99
2022-11-19T19:46:23.464Z,-2.09
2022-11-19T19:48:52.844Z,-2.18
2022-11-19T19:51:21.425Z,-2.20
2022-11-19T19:53:49.302Z,-2.25
2022-11-19T19:56:24.210Z,-2.31
2022-11-19T19:58:51.803Z,-2.28
2022-11-19T20:01:22.939Z,-2.24
2022-11-19T20:03:54.441Z,-2.20
2022-11-19T20:06:23.260Z,-2.28
2022-11-19T20:08:50.766Z,-2.47
2022-11-19T20:11:20.402Z,-2.37
2022-11-19T20:13:48.182Z,-2.45
2022-11-19T20:16:18.677Z,-2.47
2022-11-19T20:18:48.143Z,-2.50
2022-11-19T20:21:25.682Z,-2.53
2022-11-19T20:23:53.632Z,-2.55
2022-11-19T20:26:23.560Z,-2.49
2022-11-19T20:29:02.195Z,-2.47
2022-11-19T20:31:30.654Z,-2.53
2022-11-19T20:34:00.051Z,-2.49
2022-11-19T20:36:29.115Z,-2.51
2022-11-19T20:38:59.357Z,-2.43
2022-11-19T20:41:46.497Z,-2.36
2022-11-19T20:44:22.171Z,-2.31
2022-11-19T20:46:55.127Z,-2.27
2022-11-19T20:49:24.982Z,-2.27
2022-11-19T20:51:53.454Z,-2.29
2022-11-19T20:54:21.620Z,-2.30
2022-11-19T20:56:51.769Z,-2.35
2022-11-19T20:59:20.298Z,-2.43
2022-11-19T21:01:50.765Z,-2.43
2022-11-19T21:04:19.376Z,-2.52
2022-11-19T21:06:47.096Z,-2.56
2022-11-19T21:09:15.760Z,-2.62
2022-11-19T21:11:43.761Z,-2.69
2022-11-19T21:14:11.860Z,-2.75
2022-11-19T21:16:38.912Z,-2.84
2022-11-19T21:19:05.913Z,-2.79
2022-11-19T21:21:33.103Z,-2.75
2022-11-19T21:24:00.112Z,-2.81
2022-11-19T21:26:28.662Z,-2.75
2022-11-19T21:28:58.377Z,-2.75
2022-11-19T21:31:41.645Z,-2.69
2022-11-19T21:34:11.702Z,-2.73
2022-11-19T21:36:40.014Z,-2.65
2022-11-19T21:39:08.058Z,-2.69
2022-11-19T21:41:35.350Z,-2.70
2022-11-19T21:44:03.460Z,-2.72
2022-11-19T21:46:31.125Z,-2.75
2022-11-19T21:48:58.177Z,-2.77
2022-11-19T21:51:25.591Z,-2.81
2022-11-19T21:53:57.297Z,-2.83
2022-11-19T21:56:25.895Z,-2.84
2022-11-19T21:58:53.285Z,-2.86
2022-11-19T22:01:20.954Z,-2.83
2022-11-19T22:03:48.470Z,-2.91
2022-11-19T22:06:15.919Z,-2.88
2022-11-19T22:08:43.633Z,-2.96
2022-11-19T22:11:30.925Z,-2.95
2022-11-19T22:14:02.133Z,-3.03
2022-11-19T22:16:30.515Z,-3.12
2022-11-19T22:18:57.592Z,-3.22
2022-11-19T22:21:25.887Z,-3.22
2022-11-19T22:23:52.876Z,-3.39
2022-11-19T22:26:19.935Z,-3.27
2022-11-19T22:28:47.150Z,-3.30
2022-11-19T22:31:15.437Z,-3.34
2022-11-19T22:33:42.505Z,-3.49
2022-11-19T22:36:11.166Z,-3.54
2022-11-19T22:38:39.339Z,-3.64
2022-11-19T22:41:09.644Z,-3.56
2022-11-19T22:43:37.409Z,-3.54
2022-11-19T22:46:05.386Z,-3.53
2022-11-19T22:48:32.982Z,-3.50
2022-11-19T22:51:05.618Z,-3.50
2022-11-19T22:53:37.140Z,-3.49
2022-11-19T22:56:06.833Z,-3.46
2022-11-19T22:58:34.828Z,-3.43
2022-11-19T23:01:02.666Z,-3.40
2022-11-19T23:03:29.982Z,-3.43
2022-11-19T23:05:59.072Z,-3.47
2022-11-19T23:08:26.445Z,-3.45
2022-11-19T23:10:58.277Z,-3.57
2022-11-19T23:13:32.136Z,-3.45
2022-11-19T23:16:14.788Z,-3.44
2022-11-19T23:18:52.568Z,-3.46
2022-11-19T23:21:25.174Z,-3.45
2022-11-19T23:23:53.085Z,-3.52
2022-11-19T23:26:24.763Z,-3.61
2022-11-19T23:28:52.597Z,-3.80
2022-11-19T23:31:30.472Z,-3.80
2022-11-19T23:33:59.370Z,-3.85
2022-11-19T23:36:33.180Z,-3.90
2022-11-19T23:39:01.166Z,-3.95
2022-11-19T23:41:31.233Z,-3.94
2022-11-19T23:43:58.265Z,-3.92
2022-11-19T23:46:31.795Z,-3.82
2022-11-19T23:49:00.148Z,-3.78
2022-11-19T23:51:32.958Z,-3.75
2022-11-19T23:54:00.107Z,-3.75
2022-11-19T23:56:29.398Z,-3.80
2022-11-19T23:58:56.985Z,-3.82
